地図

経路データ

SID SEASON NUMBER BASIN SUBBASIN NAME ISO_TIME NATURE LAT LON WMO_WIND WMO_PRES WMO_AGENCY TRACK_TYPE DIST2LAND LANDFALL IFLAG USA_AGENCY USA_ATCF_ID USA_LAT USA_LON USA_RECORD USA_STATUS USA_WIND USA_PRES USA_SSHS USA_R34_NE USA_R34_SE USA_R34_SW USA_R34_NW USA_R50_NE USA_R50_SE USA_R50_SW USA_R50_NW USA_R64_NE USA_R64_SE USA_R64_SW USA_R64_NW USA_POCI USA_ROCI USA_RMW USA_EYE TOKYO_LAT TOKYO_LON TOKYO_GRADE TOKYO_WIND TOKYO_PRES TOKYO_R50_DIR TOKYO_R50_LONG TOKYO_R50_SHORT TOKYO_R30_DIR TOKYO_R30_LONG TOKYO_R30_SHORT TOKYO_LAND CMA_LAT CMA_LON CMA_CAT CMA_WIND CMA_PRES HKO_LAT HKO_LON HKO_CAT HKO_WIND HKO_PRES NEWDELHI_LAT NEWDELHI_LON NEWDELHI_GRADE NEWDELHI_WIND NEWDELHI_PRES NEWDELHI_CI NEWDELHI_DP NEWDELHI_POCI REUNION_LAT REUNION_LON REUNION_TYPE REUNION_WIND REUNION_PRES REUNION_TNUM REUNION_CI REUNION_RMW REUNION_R34_NE REUNION_R34_SE REUNION_R34_SW REUNION_R34_NW REUNION_R50_NE REUNION_R50_SE REUNION_R50_SW REUNION_R50_NW REUNION_R64_NE REUNION_R64_SE REUNION_R64_SW REUNION_R64_NW BOM_LAT BOM_LON BOM_TYPE BOM_WIND BOM_PRES BOM_TNUM BOM_CI BOM_RMW BOM_R34_NE BOM_R34_SE BOM_R34_SW BOM_R34_NW BOM_R50_NE BOM_R50_SE BOM_R50_SW BOM_R50_NW BOM_R64_NE BOM_R64_SE BOM_R64_SW BOM_R64_NW BOM_ROCI BOM_POCI BOM_EYE BOM_POS_METHOD BOM_PRES_METHOD NADI_LAT NADI_LON NADI_CAT NADI_WIND NADI_PRES WELLINGTON_LAT WELLINGTON_LON WELLINGTON_WIND WELLINGTON_PRES DS824_LAT DS824_LON DS824_STAGE DS824_WIND DS824_PRES TD9636_LAT TD9636_LON TD9636_STAGE TD9636_WIND TD9636_PRES TD9635_LAT TD9635_LON TD9635_WIND TD9635_PRES TD9635_ROCI NEUMANN_LAT NEUMANN_LON NEUMANN_CLASS NEUMANN_WIND NEUMANN_PRES MLC_LAT MLC_LON MLC_CLASS MLC_WIND MLC_PRES USA_GUST BOM_GUST BOM_GUST_PER REUNION_GUST REUNION_GUST_PER USA_SEAHGT USA_SEARAD_NE USA_SEARAD_SE USA_SEARAD_SW USA_SEARAD_NW STORM_SPEED STORM_DIR
1924286N26272 1924 44 NA GM NOT_NAMED 1924-10-11 12:00:00 TS 25.5000 -88.0000 30 hurdat_atl main 405 384 O_____________ hurdat_atl AL091924 25.5000 -88.0000 TD 30 -1 4 348
1924286N26272 1924 44 NA GM NOT_NAMED 1924-10-11 15:00:00 TS 25.6975 -88.0425 main 384 359 P_____________ AL091924 25.6975 -88.0425 TD 32 -1 4 348
1924286N26272 1924 44 NA GM NOT_NAMED 1924-10-11 18:00:00 TS 25.9000 -88.1000 35 hurdat_atl main 359 335 O_____________ hurdat_atl AL091924 25.9000 -88.1000 TS 35 0 4 343
1924286N26272 1924 44 NA GM NOT_NAMED 1924-10-11 21:00:00 TS 26.1075 -88.1850 main 335 311 P_____________ AL091924 26.1075 -88.1850 TS 37 0 4 336
1924286N26272 1924 44 NA GM NOT_NAMED 1924-10-12 00:00:00 TS 26.3000 -88.3000 40 hurdat_atl main 311 287 O_____________ hurdat_atl AL091924 26.3000 -88.3000 TS 40 0 4 329
1924286N26272 1924 44 NA GM NOT_NAMED 1924-10-12 03:00:00 TS 26.4725 -88.4350 main 287 272 P_____________ AL091924 26.4725 -88.4350 TS 42 0 4 318
1924286N26272 1924 44 NA GM NOT_NAMED 1924-10-12 06:00:00 TS 26.6000 -88.6000 45 hurdat_atl main 272 258 O_____________ hurdat_atl AL091924 26.6000 -88.6000 TS 45 0 4 307
1924286N26272 1924 44 NA GM NOT_NAMED 1924-10-12 09:00:00 TS 26.7024 -88.7773 main 258 257 P_____________ AL091924 26.7024 -88.7773 TS 47 0 4 286
1924286N26272 1924 44 NA GM NOT_NAMED 1924-10-12 12:00:00 TS 26.7000 -89.0000 50 hurdat_atl main 257 256 O_____________ hurdat_atl AL091924 26.7000 -89.0000 TS 50 0 5 251
1924286N26272 1924 44 NA GM NOT_NAMED 1924-10-12 15:00:00 TS 26.5523 -89.2624 main 268 268 P_____________ AL091924 26.5523 -89.2624 TS 50 0 7 233
1924286N26272 1924 44 NA GM NOT_NAMED 1924-10-12 18:00:00 TS 26.3000 -89.6000 50 hurdat_atl main 305 305 O_____________ hurdat_atl AL091924 26.3000 -89.6000 TS 50 0 9 232
1924286N26272 1924 44 NA GM NOT_NAMED 1924-10-12 21:00:00 TS 26.0299 -90.0123 main 346 346 P_____________ AL091924 26.0299 -90.0123 TS 50 0 10 233
1924286N26272 1924 44 NA GM NOT_NAMED 1924-10-13 00:00:00 TS 25.7000 -90.5000 50 hurdat_atl main 379 379 O_____________ hurdat_atl AL091924 25.7000 -90.5000 TS 50 0 12 233
1924286N26272 1924 44 NA GM NOT_NAMED 1924-10-13 03:00:00 TS 25.3077 -91.0578 main 424 424 P_____________ AL091924 25.3077 -91.0578 TS 50 0 13 231
1924286N26272 1924 44 NA GM NOT_NAMED 1924-10-13 06:00:00 TS 24.9000 -91.6000 50 hurdat_atl main 445 418 O_____________ hurdat_atl AL091924 24.9000 -91.6000 TS 50 0 12 228
1924286N26272 1924 44 NA GM NOT_NAMED 1924-10-13 09:00:00 TS 24.5272 -92.0221 main 418 407 P_____________ AL091924 24.5272 -92.0221 TS 50 0 10 226
1924286N26272 1924 44 NA GM NOT_NAMED 1924-10-13 12:00:00 TS 24.2000 -92.4000 50 hurdat_atl main 408 401 O_____________ hurdat_atl AL091924 24.2000 -92.4000 TS 50 0 9 230
1924286N26272 1924 44 NA GM NOT_NAMED 1924-10-13 15:00:00 TS 23.9274 -92.7998 main 404 403 P_____________ AL091924 23.9274 -92.7998 TS 50 0 9 236
1924286N26272 1924 44 NA GM NOT_NAMED 1924-10-13 18:00:00 TS 23.7000 -93.2000 50 hurdat_atl main 416 416 O_____________ hurdat_atl AL091924 23.7000 -93.2000 TS 50 0 9 239
1924286N26272 1924 44 NA GM NOT_NAMED 1924-10-13 21:00:00 TS 23.4924 -93.5998 main 428 387 P_____________ AL091924 23.4924 -93.5998 TS 50 0 8 241
1924286N26272 1924 44 NA GM NOT_NAMED 1924-10-14 00:00:00 TS 23.3000 -94.0000 50 hurdat_atl main 387 342 O_____________ hurdat_atl AL091924 23.3000 -94.0000 TS 50 0 8 242
1924286N26272 1924 44 NA GM NOT_NAMED 1924-10-14 03:00:00 TS 23.0999 -94.3999 main 342 295 P_____________ AL091924 23.0999 -94.3999 TS 50 0 8 241
1924286N26272 1924 44 NA GM NOT_NAMED 1924-10-14 06:00:00 TS 22.9000 -94.8000 50 hurdat_atl main 295 248 O_____________ hurdat_atl AL091924 22.9000 -94.8000 TS 50 0 8 242
1924286N26272 1924 44 NA GM NOT_NAMED 1924-10-14 09:00:00 TS 22.7074 -95.1998 main 248 201 P_____________ AL091924 22.7074 -95.1998 TS 50 0 8 242
1924286N26272 1924 44 NA GM NOT_NAMED 1924-10-14 12:00:00 TS 22.5000 -95.6000 50 hurdat_atl main 201 155 O_____________ hurdat_atl AL091924 22.5000 -95.6000 TS 50 0 9 239
1924286N26272 1924 44 NA GM NOT_NAMED 1924-10-14 15:00:00 TS 22.2574 -95.9999 main 155 103 P_____________ AL091924 22.2574 -95.9999 TS 50 0 9 236
1924286N26272 1924 44 NA GM NOT_NAMED 1924-10-14 18:00:00 TS 22.0000 -96.4000 50 hurdat_atl main 103 56 O_____________ hurdat_atl AL091924 22.0000 -96.4000 TS 50 0 9 236
1924286N26272 1924 44 NA GM NOT_NAMED 1924-10-14 21:00:00 TS 21.7499 -96.7999 main 52 15 P_____________ AL091924 21.7499 -96.7999 TS 50 0 9 236
1924286N26272 1924 44 NA GM NOT_NAMED 1924-10-15 00:00:00 TS 21.5000 -97.2000 50 hurdat_atl main 15 0 O_____________ hurdat_atl AL091924 21.5000 -97.2000 TS 50 0 9 236
1924286N26272 1924 44 NA NA NOT_NAMED 1924-10-15 03:00:00 TS 21.2502 -97.6003 main 0 0 P_____________ AL091924 21.2502 -97.6003 TS 40 0 9 236
1924286N26272 1924 44 NA NA NOT_NAMED 1924-10-15 06:00:00 TS 21.0000 -98.0000 30 hurdat_atl main 0 O_____________ hurdat_atl AL091924 21.0000 -98.0000 TD 30 -1 9 236

IBTrACS Databaseについて

本データベースは、米国NOAAが公開する1842年以降の世界の熱帯低気圧のベストトラックデータアーカイブInternational Best Track Archive for Climate Stewardship (IBTrACS)を、ウェブで閲覧しやすい形式に変換したものです。

最終更新日:2021-12-03